Time;durP1;ratioP1;P1;durP2;ratioP2;P2;SDS_P1;SDS_P2;PMS_P1;PMS_P2;Temp;Humidity;BMP_temperature;BMP_pressure;BME280_temperature;BME280_humidity;BME280_pressure;Samples;Min_cycle;Max_cycle;Signal;HPM_P1;HPM_P2
2021/05/10 00:01:09;;;;;;;0.43;0.40;;;;;;;;;;4991385;28;20163;-71
2021/05/10 00:03:35;;;;;;;0.30;0.30;;;;;;;;;;4990175;28;20652;-71
2021/05/10 00:06:01;;;;;;;0.30;0.30;;;;;;;;;;4991245;28;20199;-71
2021/05/10 00:08:27;;;;;;;0.47;0.47;;;;;;;;;;4989884;28;20211;-71
2021/05/10 00:10:54;;;;;;;0.30;0.30;;;;;;;;;;4991273;28;20152;-71
2021/05/10 00:13:21;;;;;;;1.55;1.30;;;;;;;;;;4989377;28;20163;-71
2021/05/10 00:15:48;;;;;;;0.35;0.35;;;;;;;;;;4991107;28;20191;-71
2021/05/10 00:18:14;;;;;;;0.20;0.20;;;;;;;;;;4991014;28;20163;-71
2021/05/10 00:20:42;;;;;;;0.13;0.13;;;;;;;;;;4989697;28;20658;-71
2021/05/10 00:23:09;;;;;;;0.20;0.20;;;;;;;;;;4991001;28;20191;-72
2021/05/10 00:25:35;;;;;;;0.20;0.20;;;;;;;;;;4990924;28;20253;-72
2021/05/10 00:28:01;;;;;;;0.50;0.50;;;;;;;;;;4989434;28;20219;-72
2021/05/10 00:30:28;;;;;;;0.10;0.10;;;;;;;;;;4989497;28;20172;-72
2021/05/10 00:32:54;;;;;;;0.40;0.40;;;;;;;;;;4989225;28;20183;-72
2021/05/10 00:35:21;;;;;;;2.13;0.70;;;;;;;;;;4990720;28;20222;-72
2021/05/10 00:37:47;;;;;;;0.43;0.43;;;;;;;;;;4989564;28;20614;-72
2021/05/10 00:40:15;;;;;;;0.35;0.35;;;;;;;;;;4990751;28;20191;-72
2021/05/10 00:42:41;;;;;;;0.15;0.15;;;;;;;;;;4990747;28;20224;-71
2021/05/10 00:45:08;;;;;;;0.10;0.10;;;;;;;;;;4990674;28;20246;-72
2021/05/10 00:47:34;;;;;;;0.10;0.10;;;;;;;;;;4989518;28;20551;-72
2021/05/10 00:50:01;;;;;;;0.60;0.60;;;;;;;;;;4989237;28;20209;-72
2021/05/10 00:52:27;;;;;;;0.38;0.35;;;;;;;;;;4990684;28;20175;-71
2021/05/10 00:54:54;;;;;;;0.40;0.40;;;;;;;;;;4990456;28;20226;-71
2021/05/10 00:57:21;;;;;;;0.17;0.17;;;;;;;;;;5006332;28;20222;-72
2021/05/10 00:59:49;;;;;;;0.20;0.20;;;;;;;;;;5009632;28;20183;-72
2021/05/10 01:02:19;;;;;;;0.13;0.13;;;;;;;;;;4992540;28;20165;-72
2021/05/10 01:04:46;;;;;;;2.30;0.75;;;;;;;;;;4992303;28;20187;-72
2021/05/10 01:07:15;;;;;;;0.30;0.30;;;;;;;;;;4992307;28;20173;-72
2021/05/10 01:09:41;;;;;;;0.17;0.17;;;;;;;;;;4992279;28;20211;-72
2021/05/10 01:12:07;;;;;;;0.20;0.20;;;;;;;;;;5009701;28;20167;-72
2021/05/10 01:14:35;;;;;;;0.55;0.47;;;;;;;;;;4992305;28;20166;-72
2021/05/10 01:17:01;;;;;;;0.47;0.47;;;;;;;;;;4992534;28;20198;-72
2021/05/10 01:19:28;;;;;;;0.10;0.10;;;;;;;;;;4992215;28;20177;-72
2021/05/10 01:21:57;;;;;;;0.32;0.32;;;;;;;;;;4992209;28;20179;-72
2021/05/10 01:24:23;;;;;;;0.52;0.52;;;;;;;;;;4992105;28;20166;-72
2021/05/10 01:26:49;;;;;;;0.20;0.20;;;;;;;;;;5009410;28;20190;-73
2021/05/10 01:29:16;;;;;;;0.10;0.10;;;;;;;;;;5009460;28;20191;-72
2021/05/10 01:31:42;;;;;;;3.08;2.05;;;;;;;;;;5009294;28;20163;-72
2021/05/10 01:34:08;;;;;;;0.20;0.20;;;;;;;;;;4992012;28;20183;-72
2021/05/10 01:36:34;;;;;;;0.40;0.40;;;;;;;;;;4991965;28;20202;-72
2021/05/10 01:39:00;;;;;;;0.15;0.15;;;;;;;;;;5009504;28;20163;-71
2021/05/10 01:41:27;;;;;;;0.40;0.40;;;;;;;;;;5009372;28;20159;-72
2021/05/10 01:43:53;;;;;;;0.00;0.00;;;;;;;;;;5009439;28;20166;-72
2021/05/10 01:46:19;;;;;;;0.50;0.50;;;;;;;;;;4991690;28;20204;-72
2021/05/10 01:48:45;;;;;;;0.95;0.95;;;;;;;;;;4991866;28;20198;-73
2021/05/10 01:51:11;;;;;;;0.03;0.03;;;;;;;;;;5009402;28;20178;-72
2021/05/10 01:53:37;;;;;;;0.28;0.28;;;;;;;;;;5009388;28;20164;-72
2021/05/10 01:56:04;;;;;;;0.20;0.20;;;;;;;;;;4985866;28;20237;-73
2021/05/10 01:58:30;;;;;;;0.45;0.22;;;;;;;;;;4989768;28;20183;-72
2021/05/10 02:00:56;;;;;;;0.45;0.45;;;;;;;;;;4989751;28;20170;-72
2021/05/10 02:03:23;;;;;;;1.30;1.20;;;;;;;;;;4972256;28;20187;-72
2021/05/10 02:05:50;;;;;;;0.20;0.20;;;;;;;;;;4989679;28;20199;-73
2021/05/10 02:08:17;;;;;;;0.47;0.47;;;;;;;;;;4972234;28;20283;-72
2021/05/10 02:10:47;;;;;;;0.80;0.80;;;;;;;;;;4973162;28;20191;-73
2021/05/10 02:13:13;;;;;;;0.60;0.60;;;;;;;;;;4993415;28;20219;-73
2021/05/10 02:15:52;;;;;;;0.20;0.20;;;;;;;;;;4992244;28;20295;-73
2021/05/10 02:18:23;;;;;;;0.10;0.10;;;;;;;;;;4993323;28;20170;-72
2021/05/10 02:20:50;;;;;;;0.15;0.15;;;;;;;;;;4993313;28;20167;-73
2021/05/10 02:23:17;;;;;;;0.17;0.13;;;;;;;;;;4992954;28;20218;-72
2021/05/10 02:25:44;;;;;;;0.30;0.30;;;;;;;;;;4975719;28;20252;-73
2021/05/10 02:28:12;;;;;;;0.10;0.10;;;;;;;;;;4975734;28;20210;-73
2021/05/10 02:30:39;;;;;;;0.10;0.10;;;;;;;;;;4975778;28;20167;-73
2021/05/10 02:33:07;;;;;;;0.00;0.00;;;;;;;;;;4992903;28;20163;-73
2021/05/10 02:35:33;;;;;;;0.10;0.10;;;;;;;;;;4975220;28;20227;-73
2021/05/10 02:38:00;;;;;;;0.10;0.10;;;;;;;;;;4992951;28;20163;-73
2021/05/10 02:40:26;;;;;;;0.57;0.30;;;;;;;;;;4975446;28;20178;-72
2021/05/10 02:42:52;;;;;;;0.20;0.20;;;;;;;;;;4975436;28;20207;-73
2021/05/10 02:45:19;;;;;;;0.38;0.38;;;;;;;;;;4992595;28;20191;-73
2021/05/10 02:47:46;;;;;;;0.20;0.20;;;;;;;;;;4974889;28;20172;-72
2021/05/10 02:50:14;;;;;;;1.27;1.17;;;;;;;;;;4975129;28;20171;-73
2021/05/10 02:52:40;;;;;;;0.82;0.80;;;;;;;;;;4992326;28;20159;-72
2021/05/10 02:55:07;;;;;;;0.28;0.28;;;;;;;;;;4992505;28;20274;-72
2021/05/10 02:57:34;;;;;;;0.80;0.80;;;;;;;;;;5010011;28;20221;-73
2021/05/10 03:00:00;;;;;;;0.15;0.15;;;;;;;;;;5011812;28;20174;-71
2021/05/10 03:02:27;;;;;;;1.17;0.30;;;;;;;;;;4994273;28;20624;-73
2021/05/10 03:04:53;;;;;;;0.30;0.20;;;;;;;;;;4994188;28;20175;-73
2021/05/10 03:07:19;;;;;;;0.55;0.55;;;;;;;;;;5011833;28;20587;-71
2021/05/10 03:09:45;;;;;;;0.03;0.03;;;;;;;;;;5011694;28;20194;-72
2021/05/10 03:12:12;;;;;;;0.20;0.20;;;;;;;;;;5011584;28;20159;-73
2021/05/10 03:14:38;;;;;;;0.28;0.28;;;;;;;;;;5011742;28;20163;-72
2021/05/10 03:17:04;;;;;;;0.10;0.10;;;;;;;;;;4994029;28;20199;-71
2021/05/10 03:19:31;;;;;;;0.10;0.10;;;;;;;;;;5011539;28;20165;-71
2021/05/10 03:21:57;;;;;;;0.55;0.35;;;;;;;;;;5011282;28;20174;-72
2021/05/10 03:24:23;;;;;;;0.45;0.45;;;;;;;;;;4994098;28;20246;-73
2021/05/10 03:26:49;;;;;;;0.22;0.22;;;;;;;;;;4993935;28;20209;-72
2021/05/10 03:29:15;;;;;;;0.17;0.17;;;;;;;;;;5011202;28;20190;-72
2021/05/10 03:31:41;;;;;;;2.17;0.45;;;;;;;;;;5011440;28;20263;-70
2021/05/10 03:34:08;;;;;;;0.20;0.20;;;;;;;;;;5011359;28;20159;-72
2021/05/10 03:36:34;;;;;;;0.13;0.13;;;;;;;;;;5011250;28;20191;-72
2021/05/10 03:39:01;;;;;;;0.22;0.22;;;;;;;;;;5011063;28;20166;-72
2021/05/10 03:41:28;;;;;;;0.65;0.65;;;;;;;;;;4993727;28;20265;-72
2021/05/10 03:43:56;;;;;;;0.10;0.10;;;;;;;;;;5010865;28;20240;-72
2021/05/10 03:46:23;;;;;;;0.10;0.10;;;;;;;;;;4993317;28;20198;-72
2021/05/10 03:48:49;;;;;;;0.10;0.10;;;;;;;;;;4993327;28;20202;-73
2021/05/10 03:51:15;;;;;;;1.25;0.68;;;;;;;;;;4993352;28;20175;-73
2021/05/10 03:53:41;;;;;;;1.88;1.75;;;;;;;;;;4993230;28;20189;-72
2021/05/10 03:56:07;;;;;;;0.10;0.10;;;;;;;;;;5010556;28;20226;-72
2021/05/10 03:58:33;;;;;;;0.20;0.20;;;;;;;;;;5010579;28;20229;-72
2021/05/10 04:01:00;;;;;;;0.00;0.00;;;;;;;;;;5010613;28;20179;-73
2021/05/10 04:03:31;;;;;;;0.20;0.20;;;;;;;;;;4993014;28;20170;-72
2021/05/10 04:14:13;;;;;;;2.05;0.65;;;;;;;;;;4969578;29;20172;-73
2021/05/10 04:16:40;;;;;;;0.13;0.13;;;;;;;;;;4988229;28;20207;-73
2021/05/10 04:19:06;;;;;;;2.35;1.15;;;;;;;;;;4992692;28;20200;-73
2021/05/10 04:21:32;;;;;;;0.40;0.40;;;;;;;;;;5009030;28;20182;-72
2021/05/10 04:23:58;;;;;;;0.10;0.10;;;;;;;;;;5010287;28;20170;-72
2021/05/10 04:26:24;;;;;;;0.40;0.40;;;;;;;;;;4992449;28;20210;-72
2021/05/10 04:28:50;;;;;;;0.68;0.65;;;;;;;;;;5010056;28;20194;-73
2021/05/10 04:31:17;;;;;;;6.05;0.75;;;;;;;;;;4992530;28;20174;-72
2021/05/10 04:33:43;;;;;;;0.10;0.10;;;;;;;;;;4991750;28;20178;-72
2021/05/10 04:36:09;;;;;;;25.55;1.80;;;;;;;;;;5009944;28;20190;-73
2021/05/10 04:38:40;;;;;;;0.38;0.38;;;;;;;;;;4992387;28;20264;-73
2021/05/10 04:41:06;;;;;;;0.55;0.55;;;;;;;;;;5010044;28;20651;-72
2021/05/10 04:43:33;;;;;;;0.15;0.15;;;;;;;;;;5009904;28;20213;-72
2021/05/10 04:46:00;;;;;;;1.00;0.82;;;;;;;;;;4992176;28;20198;-72
2021/05/10 04:48:27;;;;;;;0.10;0.10;;;;;;;;;;5009695;28;20286;-72
2021/05/10 04:50:54;;;;;;;0.25;0.20;;;;;;;;;;5009832;28;20167;-72
2021/05/10 04:53:20;;;;;;;3.83;0.63;;;;;;;;;;4991890;28;20540;-72
2021/05/10 04:55:46;;;;;;;0.40;0.40;;;;;;;;;;4992055;28;20214;-72
2021/05/10 04:58:12;;;;;;;0.35;0.35;;;;;;;;;;4992103;28;20264;-72
2021/05/10 05:00:38;;;;;;;0.45;0.45;;;;;;;;;;5009665;28;20167;-72
2021/05/10 05:03:05;;;;;;;0.57;0.57;;;;;;;;;;5009416;28;20181;-73
2021/05/10 05:05:31;;;;;;;0.13;0.13;;;;;;;;;;5009475;28;20205;-73
2021/05/10 05:07:57;;;;;;;0.73;0.73;;;;;;;;;;4992010;28;20242;-72
2021/05/10 05:10:23;;;;;;;0.77;0.50;;;;;;;;;;4991650;28;20247;-72
2021/05/10 05:12:50;;;;;;;31.75;1.52;;;;;;;;;;5009366;28;20178;-72
2021/05/10 05:15:17;;;;;;;0.30;0.30;;;;;;;;;;5009183;28;20186;-72
2021/05/10 05:17:44;;;;;;;0.20;0.20;;;;;;;;;;4991530;28;20181;-72
2021/05/10 05:20:11;;;;;;;0.60;0.60;;;;;;;;;;5009147;28;20330;-72
2021/05/10 05:22:37;;;;;;;0.43;0.43;;;;;;;;;;5009228;28;20180;-72
2021/05/10 05:25:06;;;;;;;0.50;0.50;;;;;;;;;;4991405;28;20246;-73
2021/05/10 05:27:33;;;;;;;0.80;0.80;;;;;;;;;;4991925;28;20174;-72
2021/05/10 05:29:59;;;;;;;0.20;0.20;;;;;;;;;;5008977;28;20201;-72
2021/05/10 05:32:25;;;;;;;0.63;0.63;;;;;;;;;;4991465;28;20189;-72
2021/05/10 05:34:52;;;;;;;0.50;0.50;;;;;;;;;;4991419;28;20166;-72
2021/05/10 05:37:18;;;;;;;1.42;1.27;;;;;;;;;;5009014;28;20243;-72
2021/05/10 05:39:44;;;;;;;1.95;0.70;;;;;;;;;;4991315;28;20179;-72
2021/05/10 05:42:11;;;;;;;0.28;0.28;;;;;;;;;;5009196;28;20163;-72
2021/05/10 05:44:37;;;;;;;0.15;0.15;;;;;;;;;;5009771;28;20193;-72
2021/05/10 05:47:05;;;;;;;0.10;0.10;;;;;;;;;;4995167;28;20213;-71
2021/05/10 05:49:34;;;;;;;0.30;0.30;;;;;;;;;;4995520;28;20198;-71
2021/05/10 05:52:05;;;;;;;0.20;0.20;;;;;;;;;;5013248;28;20155;-72
2021/05/10 05:54:32;;;;;;;4.22;1.48;;;;;;;;;;5012826;28;20166;-72
2021/05/10 05:56:59;;;;;;;2.25;1.70;;;;;;;;;;4990841;28;20245;-70
2021/05/10 05:59:25;;;;;;;0.20;0.20;;;;;;;;;;4997222;28;20196;-72
2021/05/10 06:01:51;;;;;;;0.45;0.25;;;;;;;;;;5012737;28;20214;-72
2021/05/10 06:04:17;;;;;;;0.32;0.32;;;;;;;;;;5003636;28;20202;-72
2021/05/10 06:06:43;;;;;;;0.52;0.52;;;;;;;;;;4984442;28;20213;-72
2021/05/10 06:09:11;;;;;;;0.20;0.20;;;;;;;;;;4985472;28;20210;-72
2021/05/10 06:11:38;;;;;;;0.57;0.57;;;;;;;;;;4987167;28;20162;-72
2021/05/10 06:14:04;;;;;;;0.10;0.10;;;;;;;;;;5005844;28;20170;-72
2021/05/10 06:16:33;;;;;;;0.70;0.63;;;;;;;;;;5006750;28;20205;-72
2021/05/10 06:18:59;;;;;;;0.30;0.30;;;;;;;;;;4989063;28;20186;-72
2021/05/10 06:21:26;;;;;;;0.73;0.65;;;;;;;;;;4989388;28;20619;-70
2021/05/10 06:23:52;;;;;;;0.17;0.17;;;;;;;;;;5009262;28;20209;-73
2021/05/10 06:26:19;;;;;;;1.38;0.65;;;;;;;;;;5012450;28;20161;-72
2021/05/10 06:28:45;;;;;;;0.20;0.20;;;;;;;;;;4994655;28;20265;-73
2021/05/10 06:31:12;;;;;;;0.30;0.30;;;;;;;;;;4992476;28;20262;-72
2021/05/10 06:33:38;;;;;;;0.40;0.40;;;;;;;;;;4995289;28;20222;-71
2021/05/10 06:36:05;;;;;;;1.75;0.82;;;;;;;;;;4992777;28;20653;-72
2021/05/10 06:38:33;;;;;;;0.70;0.70;;;;;;;;;;4992727;28;20171;-72
2021/05/10 06:40:59;;;;;;;0.45;0.40;;;;;;;;;;4975328;28;20175;-72
2021/05/10 06:43:26;;;;;;;1.80;0.73;;;;;;;;;;4975100;28;20199;-72
2021/05/10 06:45:52;;;;;;;1.80;0.40;;;;;;;;;;4992053;28;20175;-73
2021/05/10 06:48:28;;;;;;;0.35;0.28;;;;;;;;;;4992456;28;20198;-73
2021/05/10 06:50:55;;;;;;;0.10;0.10;;;;;;;;;;4992439;28;20162;-71
2021/05/10 06:53:22;;;;;;;0.93;0.73;;;;;;;;;;4974706;28;20213;-72
2021/05/10 06:55:48;;;;;;;0.70;0.70;;;;;;;;;;4975532;28;20242;-70
2021/05/10 06:58:14;;;;;;;25.30;1.05;;;;;;;;;;4972611;29;20187;-70
2021/05/10 07:00:41;;;;;;;0.90;0.77;;;;;;;;;;4955476;29;20176;-71
2021/05/10 07:03:07;;;;;;;0.32;0.32;;;;;;;;;;4974037;28;20254;-70
2021/05/10 07:05:33;;;;;;;1.02;0.60;;;;;;;;;;4992276;28;20163;-70
2021/05/10 07:08:07;;;;;;;9.32;0.75;;;;;;;;;;4974777;28;20175;-70
2021/05/10 07:10:33;;;;;;;0.28;0.28;;;;;;;;;;4991904;28;20167;-70
2021/05/10 07:13:00;;;;;;;0.88;0.40;;;;;;;;;;4991911;28;20258;-70
2021/05/10 07:15:26;;;;;;;0.20;0.20;;;;;;;;;;4992182;28;20199;-71
2021/05/10 07:18:05;;;;;;;2.95;1.52;;;;;;;;;;4974130;28;20206;-72
2021/05/10 07:20:32;;;;;;;0.30;0.30;;;;;;;;;;4992103;28;20171;-72
2021/05/10 07:22:59;;;;;;;0.15;0.15;;;;;;;;;;4991076;28;20163;-72
2021/05/10 07:25:25;;;;;;;7.30;0.95;;;;;;;;;;4973737;28;20265;-72
2021/05/10 07:27:51;;;;;;;1.70;0.90;;;;;;;;;;4974549;28;20187;-72
2021/05/10 07:30:18;;;;;;;0.98;0.70;;;;;;;;;;4991656;28;20564;-72
2021/05/10 07:32:44;;;;;;;0.20;0.20;;;;;;;;;;4974353;28;20193;-72
2021/05/10 07:35:10;;;;;;;1.27;0.85;;;;;;;;;;4991603;28;20203;-72
2021/05/10 07:37:37;;;;;;;0.75;0.60;;;;;;;;;;4991561;28;20163;-72
2021/05/10 07:40:06;;;;;;;0.20;0.20;;;;;;;;;;4991372;28;20173;-72
2021/05/10 07:42:32;;;;;;;0.50;0.47;;;;;;;;;;4991571;28;20191;-72
2021/05/10 07:45:01;;;;;;;0.57;0.57;;;;;;;;;;4974151;28;20699;-72
2021/05/10 07:47:30;;;;;;;0.43;0.43;;;;;;;;;;4991425;28;20151;-72
2021/05/10 07:49:57;;;;;;;0.80;0.30;;;;;;;;;;4991772;28;20187;-71
2021/05/10 07:52:23;;;;;;;1.05;0.77;;;;;;;;;;4974165;28;20171;-71
2021/05/10 07:54:49;;;;;;;0.40;0.40;;;;;;;;;;4974198;28;20191;-71
2021/05/10 07:57:15;;;;;;;4.15;0.75;;;;;;;;;;5000930;28;20238;-72
2021/05/10 07:59:41;;;;;;;0.40;0.40;;;;;;;;;;5009704;28;20170;-72
2021/05/10 08:02:08;;;;;;;0.10;0.10;;;;;;;;;;4995612;28;20191;-72
2021/05/10 08:04:34;;;;;;;0.30;0.30;;;;;;;;;;5006921;28;20171;-72
2021/05/10 08:07:00;;;;;;;0.30;0.30;;;;;;;;;;4993082;28;20193;-72
2021/05/10 08:09:26;;;;;;;0.40;0.32;;;;;;;;;;5009148;28;20197;-72
2021/05/10 08:11:52;;;;;;;0.32;0.32;;;;;;;;;;5010516;28;20171;-72
2021/05/10 08:14:19;;;;;;;0.20;0.20;;;;;;;;;;5000151;28;20515;-72
2021/05/10 08:16:47;;;;;;;0.52;0.43;;;;;;;;;;5005819;28;20262;-71
2021/05/10 08:19:13;;;;;;;6.85;0.82;;;;;;;;;;4990836;28;20151;-72
2021/05/10 08:21:40;;;;;;;0.35;0.35;;;;;;;;;;4990862;28;20167;-73
2021/05/10 08:24:06;;;;;;;0.40;0.40;;;;;;;;;;4990663;28;20171;-73
2021/05/10 08:26:32;;;;;;;1.08;0.73;;;;;;;;;;5005707;28;20202;-73
2021/05/10 08:28:59;;;;;;;0.43;0.43;;;;;;;;;;5005480;28;20218;-73
2021/05/10 08:31:25;;;;;;;0.40;0.40;;;;;;;;;;5001206;28;20257;-73
2021/05/10 08:33:51;;;;;;;0.70;0.52;;;;;;;;;;4992580;28;20582;-73
2021/05/10 08:36:18;;;;;;;0.47;0.47;;;;;;;;;;4998921;28;20199;-73
2021/05/10 08:38:44;;;;;;;1.33;1.10;;;;;;;;;;4990562;28;20170;-73
2021/05/10 08:41:18;;;;;;;0.40;0.40;;;;;;;;;;5147433;27;20898;-72
2021/05/10 08:43:44;;;;;;;0.65;0.65;;;;;;;;;;5128992;28;20185;-72
2021/05/10 08:46:10;;;;;;;0.22;0.22;;;;;;;;;;5129246;28;20180;-72
2021/05/10 08:48:36;;;;;;;16.52;0.60;;;;;;;;;;5147369;28;20150;-73
2021/05/10 08:51:03;;;;;;;0.28;0.25;;;;;;;;;;5127666;28;20198;-72
2021/05/10 08:53:40;;;;;;;4.38;2.05;;;;;;;;;;5108464;28;20182;-73
2021/05/10 08:56:06;;;;;;;0.40;0.40;;;;;;;;;;5108492;28;20173;-73
2021/05/10 08:58:37;;;;;;;0.52;0.52;;;;;;;;;;5104980;28;20186;-73
2021/05/10 09:01:03;;;;;;;0.45;0.45;;;;;;;;;;5106050;28;20202;-72
2021/05/10 09:03:43;;;;;;;0.32;0.32;;;;;;;;;;5106165;28;20169;-73
2021/05/10 09:06:13;;;;;;;0.28;0.28;;;;;;;;;;5122270;28;20163;-72
2021/05/10 09:08:47;;;;;;;0.20;0.20;;;;;;;;;;5125995;28;20172;-73
2021/05/10 09:11:15;;;;;;;5.68;0.68;;;;;;;;;;5126360;28;20166;-73
2021/05/10 09:13:54;;;;;;;0.32;0.32;;;;;;;;;;5107985;28;20182;-73
2021/05/10 09:16:20;;;;;;;0.50;0.50;;;;;;;;;;5107503;28;20212;-73
2021/05/10 09:19:00;;;;;;;0.20;0.20;;;;;;;;;;5126185;28;20228;-73
2021/05/10 09:21:27;;;;;;;0.40;0.40;;;;;;;;;;5107925;28;20170;-74
2021/05/10 09:23:54;;;;;;;1.23;0.85;;;;;;;;;;5125980;28;20180;-74
2021/05/10 09:26:28;;;;;;;1.58;0.50;;;;;;;;;;5125521;28;20179;-74
2021/05/10 09:28:55;;;;;;;0.20;0.20;;;;;;;;;;5099936;28;20170;-74
2021/05/10 09:31:21;;;;;;;0.40;0.40;;;;;;;;;;5125778;28;20166;-74
2021/05/10 09:33:47;;;;;;;0.57;0.55;;;;;;;;;;5126024;28;20614;-74
2021/05/10 09:36:33;;;;;;;1.52;1.05;;;;;;;;;;5110947;28;20163;-73
2021/05/10 09:39:00;;;;;;;0.80;0.52;;;;;;;;;;5104985;28;20159;-72
2021/05/10 09:41:27;;;;;;;0.32;0.30;;;;;;;;;;5105491;28;20152;-72
2021/05/10 09:44:00;;;;;;;0.88;0.68;;;;;;;;;;5099739;28;20170;-72
2021/05/10 09:46:39;;;;;;;0.85;0.68;;;;;;;;;;5107321;28;20170;-73
2021/05/10 09:49:05;;;;;;;5.10;0.40;;;;;;;;;;5125437;28;20194;-73
2021/05/10 09:51:32;;;;;;;2.17;0.73;;;;;;;;;;5099976;28;20163;-73
2021/05/10 09:53:58;;;;;;;0.63;0.60;;;;;;;;;;5093604;28;20163;-73
2021/05/10 09:58:54;;;;;;;0.28;0.28;;;;;;;;;;5111640;28;20206;-73
2021/05/10 10:01:21;;;;;;;34.45;0.75;;;;;;;;;;5093274;28;20178;-73
2021/05/10 10:03:49;;;;;;;1.25;0.68;;;;;;;;;;5093423;28;20238;-73
2021/05/10 10:06:19;;;;;;;0.50;0.50;;;;;;;;;;5111389;28;20269;-73
2021/05/10 10:08:50;;;;;;;12.52;1.00;;;;;;;;;;5093234;28;20194;-73
2021/05/10 10:11:20;;;;;;;2.83;0.77;;;;;;;;;;5093262;28;20183;-73
2021/05/10 10:13:46;;;;;;;0.82;0.32;;;;;;;;;;5111618;28;20163;-73
2021/05/10 10:16:14;;;;;;;0.28;0.28;;;;;;;;;;5111746;28;20170;-73
2021/05/10 10:18:41;;;;;;;0.30;0.30;;;;;;;;;;5093315;28;20285;-72
2021/05/10 10:21:09;;;;;;;0.88;0.88;;;;;;;;;;5111500;28;20229;-72
2021/05/10 10:23:35;;;;;;;0.17;0.17;;;;;;;;;;5093232;28;20171;-72
2021/05/10 10:26:05;;;;;;;0.30;0.30;;;;;;;;;;5111300;28;20650;-72
2021/05/10 10:28:31;;;;;;;0.00;0.00;;;;;;;;;;5111394;28;20186;-72
2021/05/10 10:31:06;;;;;;;0.70;0.70;;;;;;;;;;5093079;28;20174;-72
2021/05/10 10:33:37;;;;;;;0.28;0.28;;;;;;;;;;5111124;28;20531;-72
2021/05/10 10:36:04;;;;;;;0.30;0.30;;;;;;;;;;5111218;28;20197;-72
2021/05/10 10:38:34;;;;;;;0.40;0.38;;;;;;;;;;5111040;28;20195;-72
2021/05/10 10:41:19;;;;;;;2.17;1.17;;;;;;;;;;5110693;28;20316;-72
2021/05/10 10:43:46;;;;;;;3.00;0.60;;;;;;;;;;5110874;28;20159;-72
2021/05/10 10:46:19;;;;;;;0.40;0.40;;;;;;;;;;5110786;28;20166;-72
2021/05/10 10:48:46;;;;;;;0.60;0.57;;;;;;;;;;5110889;28;20191;-72
2021/05/10 10:51:14;;;;;;;0.30;0.30;;;;;;;;;;5111065;28;20592;-72
2021/05/10 10:53:48;;;;;;;0.40;0.40;;;;;;;;;;5110788;28;20591;-72
2021/05/10 10:56:15;;;;;;;0.70;0.50;;;;;;;;;;5110899;28;20160;-72
2021/05/10 10:58:43;;;;;;;0.40;0.40;;;;;;;;;;5110386;28;20203;-72
2021/05/10 11:01:18;;;;;;;0.38;0.30;;;;;;;;;;5110458;28;20179;-72
2021/05/10 11:03:44;;;;;;;1.52;1.08;;;;;;;;;;5109515;28;20579;-72
2021/05/10 11:06:11;;;;;;;2.70;0.77;;;;;;;;;;5092408;28;20185;-72
2021/05/10 11:08:43;;;;;;;0.20;0.20;;;;;;;;;;5092215;28;20214;-72
2021/05/10 11:11:10;;;;;;;0.50;0.50;;;;;;;;;;5110206;28;20189;-72
2021/05/10 11:13:40;;;;;;;0.40;0.40;;;;;;;;;;5110290;28;20170;-72
2021/05/10 11:16:10;;;;;;;0.75;0.50;;;;;;;;;;5110352;28;20159;-72
2021/05/10 11:18:37;;;;;;;0.70;0.70;;;;;;;;;;5110281;28;20186;-72
2021/05/10 11:21:07;;;;;;;0.20;0.20;;;;;;;;;;5091867;28;20205;-72
2021/05/10 11:23:35;;;;;;;0.20;0.20;;;;;;;;;;5110242;28;20155;-72
2021/05/10 11:26:03;;;;;;;0.20;0.20;;;;;;;;;;5110101;28;20155;-72
2021/05/10 11:28:29;;;;;;;0.73;0.70;;;;;;;;;;5092086;28;20201;-72
2021/05/10 11:30:57;;;;;;;0.22;0.22;;;;;;;;;;5109875;28;20166;-72
2021/05/10 11:33:42;;;;;;;0.57;0.43;;;;;;;;;;5109941;28;20167;-72
2021/05/10 11:36:08;;;;;;;0.20;0.20;;;;;;;;;;5110123;28;20619;-72
2021/05/10 11:38:34;;;;;;;2.20;0.30;;;;;;;;;;5091833;28;20198;-72
2021/05/10 11:41:00;;;;;;;0.20;0.20;;;;;;;;;;5109766;28;20244;-72
2021/05/10 11:43:26;;;;;;;2.38;0.88;;;;;;;;;;5110026;28;20167;-72
2021/05/10 11:45:53;;;;;;;0.43;0.43;;;;;;;;;;5109681;28;20155;-72
2021/05/10 11:48:37;;;;;;;0.32;0.32;;;;;;;;;;5109836;28;20227;-72
2021/05/10 11:51:18;;;;;;;11.60;0.50;;;;;;;;;;5109908;28;20536;-72
2021/05/10 11:53:44;;;;;;;0.55;0.55;;;;;;;;;;5109524;28;20166;-72
2021/05/10 11:56:10;;;;;;;0.45;0.45;;;;;;;;;;5109523;28;20173;-72
2021/05/10 11:58:46;;;;;;;0.30;0.10;;;;;;;;;;5087765;28;20203;-72
2021/05/10 12:01:13;;;;;;;0.20;0.20;;;;;;;;;;5089308;28;20179;-72
2021/05/10 12:03:39;;;;;;;0.30;0.22;;;;;;;;;;5089393;28;20216;-72
2021/05/10 12:06:24;;;;;;;1.58;0.95;;;;;;;;;;5086513;28;20204;-72
2021/05/10 12:08:50;;;;;;;0.20;0.20;;;;;;;;;;5109417;28;20251;-72
2021/05/10 12:11:23;;;;;;;1.30;0.60;;;;;;;;;;5109515;28;20165;-72
2021/05/10 12:13:50;;;;;;;2.63;0.30;;;;;;;;;;5109313;28;20242;-72
2021/05/10 12:16:16;;;;;;;1.27;0.57;;;;;;;;;;5109298;28;20159;-72
2021/05/10 12:18:55;;;;;;;9.20;0.75;;;;;;;;;;5091189;28;20582;-72
2021/05/10 12:21:22;;;;;;;0.43;0.40;;;;;;;;;;5091228;28;20174;-73
2021/05/10 12:23:48;;;;;;;0.10;0.10;;;;;;;;;;5109339;28;20169;-72
2021/05/10 12:26:14;;;;;;;0.55;0.30;;;;;;;;;;5109412;28;20194;-73
2021/05/10 12:28:41;;;;;;;4.53;0.65;;;;;;;;;;5108951;28;20240;-73
2021/05/10 12:31:07;;;;;;;0.25;0.25;;;;;;;;;;5091132;28;20171;-73
2021/05/10 12:33:33;;;;;;;0.45;0.45;;;;;;;;;;5090981;28;20175;-73
2021/05/10 12:36:04;;;;;;;0.10;0.10;;;;;;;;;;5109428;28;20159;-73
2021/05/10 12:38:32;;;;;;;0.25;0.25;;;;;;;;;;5090550;28;20195;-72
2021/05/10 12:41:00;;;;;;;0.13;0.13;;;;;;;;;;5108751;28;20229;-72
2021/05/10 12:43:27;;;;;;;0.20;0.20;;;;;;;;;;5109074;28;20634;-73
2021/05/10 12:45:56;;;;;;;0.20;0.20;;;;;;;;;;5090626;28;20200;-72
2021/05/10 12:48:23;;;;;;;0.95;0.95;;;;;;;;;;5090787;28;20186;-72
2021/05/10 12:50:50;;;;;;;1.63;0.30;;;;;;;;;;5109145;28;20155;-72
2021/05/10 12:53:29;;;;;;;8.63;1.85;;;;;;;;;;5108921;28;20597;-73
2021/05/10 12:56:03;;;;;;;0.10;0.10;;;;;;;;;;5109088;28;20177;-72
2021/05/10 12:58:29;;;;;;;0.00;0.00;;;;;;;;;;5108801;28;20248;-72
2021/05/10 13:00:55;;;;;;;1.10;0.85;;;;;;;;;;5108916;28;20186;-72
2021/05/10 13:03:35;;;;;;;0.08;0.08;;;;;;;;;;5090735;28;20167;-72
2021/05/10 13:06:04;;;;;;;0.63;0.63;;;;;;;;;;5108779;28;20167;-72
2021/05/10 13:08:43;;;;;;;0.30;0.30;;;;;;;;;;5108755;28;20191;-72
2021/05/10 13:11:10;;;;;;;0.25;0.25;;;;;;;;;;5090414;28;20194;-72
2021/05/10 13:13:42;;;;;;;1.55;1.27;;;;;;;;;;5090565;28;20262;-72
2021/05/10 13:16:19;;;;;;;0.80;0.45;;;;;;;;;;5108467;28;20167;-73
2021/05/10 13:19:06;;;;;;;0.20;0.20;;;;;;;;;;5108178;28;20186;-73
2021/05/10 13:30:58;;;;;;;0.40;0.40;;;;;;;;;;5110942;28;20162;-74
2021/05/10 13:32:55;;;;;;;0.10;0.10;;;;;;;;;;5112433;28;20193;-74
2021/05/10 13:38:10;;;;;;;0.17;0.17;;;;;;;;;;5112189;28;20159;-75
2021/05/10 13:40:37;;;;;;;0.25;0.25;;;;;;;;;;5112141;28;20229;-74
2021/05/10 13:43:55;;;;;;;0.45;0.45;;;;;;;;;;5112148;28;20205;-74
2021/05/10 13:45:53;;;;;;;0.10;0.10;;;;;;;;;;5103398;28;20288;-74
2021/05/10 13:48:19;;;;;;;0.28;0.22;;;;;;;;;;5093561;28;20201;-75
2021/05/10 13:50:45;;;;;;;1.00;0.47;;;;;;;;;;5112258;28;20187;-74
2021/05/10 13:53:11;;;;;;;0.30;0.30;;;;;;;;;;5112066;28;20194;-74
2021/05/10 13:55:37;;;;;;;0.20;0.20;;;;;;;;;;5111823;28;20182;-74
2021/05/10 13:58:03;;;;;;;0.10;0.10;;;;;;;;;;5111791;28;20189;-73
2021/05/10 14:00:29;;;;;;;0.40;0.40;;;;;;;;;;5093508;28;20214;-74
2021/05/10 14:02:56;;;;;;;0.17;0.17;;;;;;;;;;5111904;28;20254;-74
2021/05/10 14:05:22;;;;;;;0.10;0.10;;;;;;;;;;5093485;28;20170;-73
2021/05/10 14:07:48;;;;;;;0.40;0.40;;;;;;;;;;5111682;28;20260;-73
2021/05/10 14:10:17;;;;;;;0.20;0.20;;;;;;;;;;5111437;28;20205;-74
2021/05/10 14:12:44;;;;;;;0.55;0.55;;;;;;;;;;5111750;28;20238;-75
2021/05/10 14:15:10;;;;;;;0.20;0.20;;;;;;;;;;5111559;28;20159;-75
2021/05/10 14:17:38;;;;;;;4.53;1.13;;;;;;;;;;5093500;28;20167;-75
2021/05/10 14:20:05;;;;;;;0.22;0.20;;;;;;;;;;5111427;28;20198;-75
2021/05/10 14:22:31;;;;;;;2.45;0.68;;;;;;;;;;5111159;28;20716;-75
2021/05/10 14:24:57;;;;;;;1.85;0.85;;;;;;;;;;5092905;28;20246;-73
2021/05/10 14:27:23;;;;;;;0.45;0.45;;;;;;;;;;5111308;28;20233;-73
2021/05/10 14:29:49;;;;;;;0.35;0.35;;;;;;;;;;5111031;28;20349;-73
2021/05/10 14:32:16;;;;;;;7.90;1.25;;;;;;;;;;5111390;28;20588;-71
2021/05/10 14:34:42;;;;;;;0.20;0.20;;;;;;;;;;5111272;28;20159;-71
2021/05/10 14:37:08;;;;;;;2.65;0.68;;;;;;;;;;5092674;28;20220;-72
2021/05/10 14:39:34;;;;;;;1.17;0.80;;;;;;;;;;5089139;28;20806;-74
2021/05/10 14:42:00;;;;;;;2.53;1.30;;;;;;;;;;5090459;28;20175;-74
2021/05/10 14:44:27;;;;;;;0.10;0.10;;;;;;;;;;5090554;28;20160;-74
2021/05/10 14:46:53;;;;;;;1.90;0.38;;;;;;;;;;5090677;28;20583;-74
2021/05/10 14:49:19;;;;;;;0.90;0.68;;;;;;;;;;5090577;28;20252;-74
2021/05/10 14:51:46;;;;;;;0.70;0.70;;;;;;;;;;5090479;28;20164;-74
2021/05/10 14:54:12;;;;;;;0.35;0.35;;;;;;;;;;5088690;28;20167;-74
2021/05/10 14:56:40;;;;;;;0.28;0.28;;;;;;;;;;5089161;28;20171;-74
2021/05/10 14:59:06;;;;;;;0.40;0.40;;;;;;;;;;5090084;28;20222;-74
2021/05/10 15:01:33;;;;;;;14.77;0.95;;;;;;;;;;5089725;28;20413;-74
2021/05/10 15:03:59;;;;;;;2.50;0.60;;;;;;;;;;5090055;28;20168;-72
2021/05/10 15:06:25;;;;;;;1.00;0.30;;;;;;;;;;5090056;28;20171;-75
2021/05/10 15:08:51;;;;;;;0.03;0.03;;;;;;;;;;5090268;28;20195;-75